Time;durP1;ratioP1;P1;durP2;ratioP2;P2;SDS_P1;SDS_P2;PMS_P1;PMS_P2;Temp;Humidity;BMP_temperature;BMP_pressure;BME280_temperature;BME280_humidity;BME280_pressure;Samples;Min_cycle;Max_cycle;Signal;HPM_P1;HPM_P2
2022/07/22 00:01:34;;;;;;;;;29.00;26.33;;;;;-146.44;100.00;58906.56;5076859;28;45410;-67
2022/07/22 00:04:01;;;;;;;;;26.00;26.00;;;;;-146.44;100.00;58906.56;5076633;28;45467;-67
2022/07/22 00:06:26;;;;;;;;;26.67;26.67;;;;;-146.44;100.00;58906.56;5076732;27;45326;-67
2022/07/22 00:08:51;;;;;;;;;26.00;26.00;;;;;-146.44;100.00;58906.56;5076630;28;45366;-67
2022/07/22 00:11:17;;;;;;;;;28.00;27.00;;;;;-146.44;100.00;58906.56;5076726;28;45453;-67
2022/07/22 00:13:42;;;;;;;;;27.00;25.67;;;;;-146.44;100.00;58906.56;5076603;28;45593;-67
2022/07/22 00:16:08;;;;;;;;;28.67;28.67;;;;;-146.44;100.00;58906.56;5076121;28;46355;-67
2022/07/22 00:18:33;;;;;;;;;27.33;22.67;;;;;-146.44;100.00;58906.56;5075744;27;45426;-67
2022/07/22 00:20:58;;;;;;;;;26.67;26.67;;;;;-146.44;100.00;58906.56;5076648;28;46000;-67
2022/07/22 00:23:24;;;;;;;;;27.67;25.00;;;;;-146.44;100.00;58906.56;5076493;28;45586;-67
2022/07/22 00:25:49;;;;;;;;;25.67;22.67;;;;;-146.44;100.00;58906.56;5076108;28;46184;-67
2022/07/22 00:28:14;;;;;;;;;27.00;26.00;;;;;-146.44;100.00;58906.56;5076401;28;45457;-67
2022/07/22 00:30:40;;;;;;;;;23.00;22.00;;;;;-146.44;100.00;58906.56;5076408;28;45367;-68
2022/07/22 00:33:05;;;;;;;;;26.67;25.67;;;;;-146.44;100.00;58906.56;5074218;28;45418;-68
2022/07/22 00:35:31;;;;;;;;;19.67;19.67;;;;;-146.44;100.00;58906.56;5060600;28;45446;-67
2022/07/22 00:37:56;;;;;;;;;26.00;25.67;;;;;-146.44;100.00;58906.56;5075998;28;45535;-67
2022/07/22 00:40:21;;;;;;;;;23.33;22.33;;;;;-146.44;100.00;58906.56;5064381;28;45446;-67
2022/07/22 00:42:47;;;;;;;;;26.67;25.33;;;;;-146.44;100.00;58906.56;5056014;28;45607;-67
2022/07/22 00:45:12;;;;;;;;;25.00;22.00;;;;;-146.44;100.00;58906.56;5055802;28;45469;-67
2022/07/22 00:47:38;;;;;;;;;25.00;24.33;;;;;-146.44;100.00;58906.56;5055751;28;45489;-67
2022/07/22 00:50:05;;;;;;;;;24.67;24.00;;;;;-146.44;100.00;58906.56;5055828;28;45485;-67
2022/07/22 00:52:31;;;;;;;;;23.67;22.67;;;;;-146.44;100.00;58906.56;5067015;28;45371;-67
2022/07/22 00:54:58;;;;;;;;;25.00;25.00;;;;;-146.44;100.00;58906.56;5074638;27;46569;-67
2022/07/22 00:57:24;;;;;;;;;20.67;20.00;;;;;-146.44;100.00;58906.56;5075812;27;45348;-67
2022/07/22 00:59:49;;;;;;;;;23.00;23.00;;;;;-146.44;100.00;58906.56;5075869;28;45580;-67
2022/07/22 01:02:15;;;;;;;;;22.33;21.33;;;;;-146.44;100.00;58906.56;5076002;28;45362;-67
2022/07/22 01:04:40;;;;;;;;;22.00;20.00;;;;;-146.44;100.00;58906.56;5075610;28;45446;-67
2022/07/22 01:07:06;;;;;;;;;23.33;23.00;;;;;-146.44;100.00;58906.56;5075612;28;45440;-68
2022/07/22 01:09:31;;;;;;;;;23.67;23.00;;;;;-146.44;100.00;58906.56;5076101;28;45421;-67
2022/07/22 01:11:56;;;;;;;;;24.00;22.33;;;;;-146.44;100.00;58906.56;5075568;28;45743;-67
2022/07/22 01:14:22;;;;;;;;;21.33;21.33;;;;;-146.44;100.00;58906.56;5075365;28;46127;-67
2022/07/22 01:16:47;;;;;;;;;23.00;21.33;;;;;-146.44;100.00;58906.56;5075608;28;45444;-67
2022/07/22 01:19:12;;;;;;;;;22.00;22.00;;;;;-146.44;100.00;58906.56;5075502;28;45401;-67
2022/07/22 01:21:38;;;;;;;;;21.67;21.00;;;;;-146.44;100.00;58906.56;5075548;28;45500;-67
2022/07/22 01:24:04;;;;;;;;;20.67;19.67;;;;;-146.44;100.00;58906.56;5075444;28;45347;-67
2022/07/22 01:26:30;;;;;;;;;20.33;19.00;;;;;-146.44;100.00;58906.56;5075560;28;45475;-67
2022/07/22 01:28:55;;;;;;;;;23.00;23.00;;;;;-146.44;100.00;58906.56;5077077;28;45394;-67
2022/07/22 01:31:20;;;;;;;;;19.33;19.33;;;;;-146.44;100.00;58906.56;5078153;27;45465;-67
2022/07/22 01:33:46;;;;;;;;;19.67;18.67;;;;;-146.44;100.00;58906.56;5079044;28;45890;-67
2022/07/22 01:36:11;;;;;;;;;21.00;21.00;;;;;-146.44;100.00;58906.56;5078965;28;45453;-67
2022/07/22 01:38:37;;;;;;;;;19.00;17.67;;;;;-146.44;100.00;58906.56;5078822;28;45495;-67
2022/07/22 01:41:02;;;;;;;;;24.00;23.00;;;;;-146.44;100.00;58906.56;5079014;28;45379;-67
2022/07/22 01:43:28;;;;;;;;;21.67;19.67;;;;;-146.44;100.00;58906.56;5079010;28;45491;-67
2022/07/22 01:45:53;;;;;;;;;22.00;19.00;;;;;-146.44;100.00;58906.56;5078984;28;45481;-67
2022/07/22 01:48:20;;;;;;;;;24.00;22.67;;;;;-146.44;100.00;58906.56;5078858;28;45423;-69
2022/07/22 01:50:45;;;;;;;;;26.33;22.00;;;;;-146.44;100.00;58906.56;5078797;28;45667;-67
2022/07/22 01:53:11;;;;;;;;;20.33;19.33;;;;;-146.44;100.00;58906.56;5078593;28;46149;-67
2022/07/22 01:55:37;;;;;;;;;23.00;22.00;;;;;-146.44;100.00;58906.56;5078902;27;45353;-67
2022/07/22 01:58:04;;;;;;;;;19.33;19.33;;;;;-146.44;100.00;58906.56;5078912;28;45371;-67
2022/07/22 02:00:30;;;;;;;;;23.00;23.00;;;;;-146.44;100.00;58906.56;5078866;28;45491;-67
2022/07/22 02:02:55;;;;;;;;;21.00;21.00;;;;;-146.44;100.00;58906.56;5078371;28;46703;-67
2022/07/22 02:05:21;;;;;;;;;19.33;19.33;;;;;-146.44;100.00;58906.56;5078500;28;45438;-67
2022/07/22 02:07:46;;;;;;;;;21.00;20.00;;;;;-146.44;100.00;58906.56;5078747;28;45834;-67
2022/07/22 02:10:11;;;;;;;;;17.00;16.00;;;;;-146.44;100.00;58906.56;5078705;28;45379;-67
2022/07/22 02:12:37;;;;;;;;;21.33;21.00;;;;;-146.44;100.00;58906.56;5078324;28;45932;-67
2022/07/22 02:15:04;;;;;;;;;25.67;24.67;;;;;-146.44;100.00;58906.56;5078228;28;45370;-67
2022/07/22 02:17:29;;;;;;;;;21.00;18.00;;;;;-146.44;100.00;58906.56;5078426;28;45346;-67
2022/07/22 02:19:54;;;;;;;;;20.33;20.33;;;;;-146.44;100.00;58906.56;5078313;28;45377;-67
2022/07/22 02:22:20;;;;;;;;;23.33;21.00;;;;;-146.44;100.00;58906.56;5078175;28;46239;-67
2022/07/22 02:24:45;;;;;;;;;20.33;20.33;;;;;-146.44;100.00;58906.56;5078344;28;45332;-67
2022/07/22 02:27:11;;;;;;;;;21.00;21.00;;;;;-146.44;100.00;58906.56;5078491;28;45532;-66
2022/07/22 02:29:37;;;;;;;;;19.33;19.33;;;;;-146.44;100.00;58906.56;5078283;28;45578;-67
2022/07/22 02:32:02;;;;;;;;;22.33;22.00;;;;;-146.44;100.00;58906.56;5076929;27;46420;-67
2022/07/22 02:34:28;;;;;;;;;19.67;18.67;;;;;-146.44;100.00;58906.56;5073237;28;45497;-67
2022/07/22 02:36:53;;;;;;;;;19.67;19.67;;;;;-146.44;100.00;58906.56;5076880;28;45851;-67
2022/07/22 02:39:18;;;;;;;;;18.33;18.33;;;;;-146.44;100.00;58906.56;5071777;27;45683;-67
2022/07/22 02:41:44;;;;;;;;;19.00;18.67;;;;;-146.44;100.00;58906.56;5056971;28;46681;-67
2022/07/22 02:44:09;;;;;;;;;19.00;19.00;;;;;-146.44;100.00;58906.56;5057674;28;45437;-67
2022/07/22 02:46:35;;;;;;;;;18.00;17.67;;;;;-146.44;100.00;58906.56;5057887;28;45412;-67
2022/07/22 02:49:01;;;;;;;;;22.00;19.33;;;;;-146.44;100.00;58906.56;5057721;28;45449;-67
2022/07/22 02:51:26;;;;;;;;;23.00;18.33;;;;;-146.44;100.00;58906.56;5078813;27;47399;-67
2022/07/22 02:53:51;;;;;;;;;19.67;19.67;;;;;-146.44;100.00;58906.56;5077705;28;45359;-67
2022/07/22 02:56:17;;;;;;;;;20.00;19.00;;;;;-146.44;100.00;58906.56;5076524;28;45375;-67
2022/07/22 02:58:42;;;;;;;;;20.00;18.00;;;;;-146.44;100.00;58906.56;5077584;28;45419;-67
2022/07/22 03:01:07;;;;;;;;;20.00;20.00;;;;;-146.44;100.00;58906.56;5077581;28;46772;-67
2022/07/22 03:03:33;;;;;;;;;18.00;18.00;;;;;-146.44;100.00;58906.56;5077677;28;45447;-67
2022/07/22 03:05:58;;;;;;;;;18.33;18.33;;;;;-146.44;100.00;58906.56;5077685;28;45527;-67
2022/07/22 03:08:25;;;;;;;;;19.67;19.67;;;;;-146.44;100.00;58906.56;5077808;28;45456;-67
2022/07/22 03:10:50;;;;;;;;;27.33;23.33;;;;;-146.44;100.00;58906.56;5077640;28;46037;-67
2022/07/22 03:13:16;;;;;;;;;16.00;16.00;;;;;-146.44;100.00;58906.56;5077299;28;45493;-67
2022/07/22 03:15:41;;;;;;;;;20.00;17.67;;;;;-146.44;100.00;58906.56;5077432;28;45599;-67
2022/07/22 03:18:06;;;;;;;;;21.33;19.67;;;;;-146.44;100.00;58906.56;5077456;28;45575;-66
2022/07/22 03:20:33;;;;;;;;;19.33;17.00;;;;;-146.44;100.00;58906.56;5077147;28;46103;-67
2022/07/22 03:22:58;;;;;;;;;19.67;19.67;;;;;-146.44;100.00;58906.56;5077441;27;45429;-67
2022/07/22 03:25:24;;;;;;;;;18.67;18.67;;;;;-146.44;100.00;58906.56;5077423;28;45480;-67
2022/07/22 03:27:49;;;;;;;;;19.00;19.00;;;;;-146.44;100.00;58906.56;5077276;28;45627;-66
2022/07/22 03:30:14;;;;;;;;;19.00;18.00;;;;;-146.44;100.00;58906.56;5077132;28;46137;-67
2022/07/22 03:32:44;;;;;;;;;16.00;16.00;;;;;-146.44;100.00;58906.56;5077022;28;45449;-67
2022/07/22 03:35:11;;;;;;;;;20.33;19.67;;;;;-146.44;100.00;58906.56;5077139;28;45443;-66
2022/07/22 03:37:36;;;;;;;;;21.33;21.33;;;;;-146.44;100.00;58906.56;5077088;28;45541;-66
2022/07/22 03:40:02;;;;;;;;;18.00;17.00;;;;;-146.44;100.00;58906.56;5076849;28;45505;-66
2022/07/22 03:42:27;;;;;;;;;18.00;18.00;;;;;-146.44;100.00;58906.56;5076958;28;45460;-67
2022/07/22 03:44:52;;;;;;;;;21.67;20.67;;;;;-146.44;100.00;58906.56;5077164;28;45383;-66
2022/07/22 03:47:19;;;;;;;;;20.33;18.67;;;;;-146.44;100.00;58906.56;5076822;28;45627;-66
2022/07/22 03:49:45;;;;;;;;;17.67;15.33;;;;;-146.44;100.00;58906.56;5076689;28;46107;-67
2022/07/22 03:52:10;;;;;;;;;16.00;14.33;;;;;-146.44;100.00;58906.56;5075720;28;45509;-66
2022/07/22 03:54:35;;;;;;;;;19.33;18.33;;;;;-146.44;100.00;58906.56;5076859;28;45469;-66
2022/07/22 03:57:01;;;;;;;;;20.00;20.00;;;;;-146.44;100.00;58906.56;5076724;28;45557;-66
2022/07/22 03:59:26;;;;;;;;;18.00;18.00;;;;;-146.44;100.00;58906.56;5076491;28;45386;-67
2022/07/22 04:01:51;;;;;;;;;18.67;18.67;;;;;-146.44;100.00;58906.56;5075186;28;46015;-67
2022/07/22 04:04:16;;;;;;;;;19.67;17.33;;;;;-146.44;100.00;58906.56;5076666;28;45484;-66
2022/07/22 04:06:42;;;;;;;;;18.33;17.33;;;;;-146.44;100.00;58906.56;5076787;28;45566;-66
2022/07/22 04:09:07;;;;;;;;;21.00;19.33;;;;;-146.44;100.00;58906.56;5076842;27;45438;-67
2022/07/22 04:11:33;;;;;;;;;17.33;17.00;;;;;-146.44;100.00;58906.56;5076633;28;45507;-67
2022/07/22 04:13:58;;;;;;;;;17.33;17.33;;;;;-146.44;100.00;58906.56;5076725;28;45493;-66
2022/07/22 04:16:23;;;;;;;;;20.00;20.00;;;;;-146.44;100.00;58906.56;5076836;27;45379;-66
2022/07/22 04:18:49;;;;;;;;;15.67;15.00;;;;;-146.44;100.00;58906.56;5076222;28;45453;-66
2022/07/22 04:21:14;;;;;;;;;17.33;17.33;;;;;-146.44;100.00;58906.56;5076161;28;45367;-66
2022/07/22 04:23:39;;;;;;;;;19.33;16.33;;;;;-146.44;100.00;58906.56;5076602;28;45417;-67
2022/07/22 04:26:05;;;;;;;;;17.33;15.33;;;;;-146.44;100.00;58906.56;5076669;28;45491;-66
2022/07/22 04:28:34;;;;;;;;;17.00;17.00;;;;;-146.44;100.00;58906.56;5076197;28;45976;-66
2022/07/22 04:30:59;;;;;;;;;17.67;16.67;;;;;-146.44;100.00;58906.56;5076340;28;45437;-66
2022/07/22 04:33:25;;;;;;;;;17.67;17.00;;;;;-146.44;100.00;58906.56;5072603;28;45517;-66
2022/07/22 04:35:50;;;;;;;;;21.33;20.67;;;;;-146.44;100.00;58906.56;5067022;28;45452;-67
2022/07/22 04:38:17;;;;;;;;;17.33;17.33;;;;;-146.44;100.00;58906.56;5055730;28;45473;-66
2022/07/22 04:40:42;;;;;;;;;16.33;15.00;;;;;-146.44;100.00;58906.56;5070536;28;45411;-67
2022/07/22 04:43:08;;;;;;;;;16.33;16.33;;;;;-146.44;100.00;58906.56;5075990;28;45362;-66
2022/07/22 04:45:33;;;;;;;;;17.67;17.67;;;;;-146.44;100.00;58906.56;5076107;28;45321;-66
2022/07/22 04:47:58;;;;;;;;;17.67;17.67;;;;;-146.44;100.00;58906.56;5075947;28;45965;-66
2022/07/22 04:50:24;;;;;;;;;18.00;17.00;;;;;-146.44;100.00;58906.56;5075867;28;45385;-66
2022/07/22 04:52:49;;;;;;;;;17.00;17.00;;;;;-146.44;100.00;58906.56;5061715;28;45388;-66
2022/07/22 04:55:14;;;;;;;;;18.33;18.33;;;;;-146.44;100.00;58906.56;5055242;28;51377;-66
2022/07/22 04:57:40;;;;;;;;;17.33;17.00;;;;;-146.44;100.00;58906.56;5055344;28;45409;-66
2022/07/22 05:00:06;;;;;;;;;20.33;20.33;;;;;-146.44;100.00;58906.56;5055091;28;45457;-67
2022/07/22 05:02:32;;;;;;;;;18.00;17.00;;;;;-146.44;100.00;58906.56;5055150;28;45438;-66
2022/07/22 05:04:58;;;;;;;;;21.33;19.33;;;;;-146.44;100.00;58906.56;5055016;28;45490;-66
2022/07/22 05:07:24;;;;;;;;;22.00;19.00;;;;;-146.44;100.00;58906.56;5055170;28;45430;-66
2022/07/22 05:09:49;;;;;;;;;19.67;19.67;;;;;-146.44;100.00;58906.56;5055443;28;45543;-66
2022/07/22 05:12:14;;;;;;;;;21.33;17.00;;;;;-146.44;100.00;58906.56;5055458;28;45541;-66
2022/07/22 05:14:40;;;;;;;;;17.33;16.33;;;;;-146.44;100.00;58906.56;5055161;28;45521;-66
2022/07/22 05:17:10;;;;;;;;;17.33;17.33;;;;;-146.44;100.00;58906.56;5055286;28;46009;-67
2022/07/22 05:19:38;;;;;;;;;15.33;15.33;;;;;-146.44;100.00;58906.56;5055309;28;45480;-66
2022/07/22 05:22:03;;;;;;;;;20.67;17.33;;;;;-146.44;100.00;58906.56;5055404;28;45468;-66
2022/07/22 05:24:29;;;;;;;;;18.33;16.33;;;;;-146.44;100.00;58906.56;5055380;28;45408;-67
2022/07/22 05:26:54;;;;;;;;;20.00;18.00;;;;;-146.44;100.00;58906.56;5055109;28;45436;-66
2022/07/22 05:29:19;;;;;;;;;16.33;16.00;;;;;-146.44;100.00;58906.56;5054834;28;47759;-67
2022/07/22 05:31:45;;;;;;;;;16.00;15.67;;;;;-146.44;100.00;58906.56;5055167;28;45438;-66
2022/07/22 05:34:10;;;;;;;;;19.67;18.67;;;;;-146.44;100.00;58906.56;5055358;28;45490;-66
2022/07/22 05:36:35;;;;;;;;;21.33;19.67;;;;;-146.44;100.00;58906.56;5054741;28;46152;-67
2022/07/22 05:39:01;;;;;;;;;17.67;17.67;;;;;-146.44;100.00;58906.56;5054872;28;45434;-66
2022/07/22 05:41:26;;;;;;;;;20.33;18.67;;;;;-146.44;100.00;58906.56;5054827;28;45475;-66
2022/07/22 05:43:51;;;;;;;;;16.00;16.00;;;;;-146.44;100.00;58906.56;5054945;28;45382;-66
2022/07/22 05:46:17;;;;;;;;;17.33;16.33;;;;;-146.44;100.00;58906.56;5054788;28;45898;-66
2022/07/22 05:48:42;;;;;;;;;19.67;19.33;;;;;-146.44;100.00;58906.56;5054838;28;45390;-67
2022/07/22 05:51:12;;;;;;;;;21.00;20.67;;;;;-146.44;100.00;58906.56;5054657;28;46852;-66
2022/07/22 05:53:38;;;;;;;;;28.33;25.33;;;;;-146.44;100.00;58906.56;5053613;28;45376;-66
2022/07/22 05:56:04;;;;;;;;;23.67;22.33;;;;;-146.44;100.00;58906.56;5054828;28;46488;-66
2022/07/22 05:58:30;;;;;;;;;18.33;18.33;;;;;-146.44;100.00;58906.56;5054382;28;45431;-67
2022/07/22 06:00:55;;;;;;;;;18.67;18.67;;;;;-146.44;100.00;58906.56;5054829;28;45539;-67
2022/07/22 06:03:21;;;;;;;;;15.00;15.00;;;;;-146.44;100.00;58906.56;5054715;28;45743;-66
2022/07/22 06:05:46;;;;;;;;;21.00;20.67;;;;;-146.44;100.00;58906.56;5054479;28;46623;-66
2022/07/22 06:08:12;;;;;;;;;18.00;18.00;;;;;-146.44;100.00;58906.56;5054799;28;45474;-67
2022/07/22 06:10:37;;;;;;;;;17.67;17.67;;;;;-146.44;100.00;58906.56;5053870;27;45755;-67
2022/07/22 06:13:02;;;;;;;;;19.33;18.67;;;;;-146.44;100.00;58906.56;5054593;28;45358;-66
2022/07/22 06:15:28;;;;;;;;;17.67;17.67;;;;;-146.44;100.00;58906.56;5055079;28;45657;-67
2022/07/22 06:17:53;;;;;;;;;18.67;18.00;;;;;-146.44;100.00;58906.56;5058062;28;45516;-67
2022/07/22 06:20:18;;;;;;;;;20.00;20.00;;;;;-146.44;100.00;58906.56;5058009;28;45452;-67
2022/07/22 06:22:44;;;;;;;;;20.33;20.33;;;;;-146.44;100.00;58906.56;5058074;28;45645;-66
2022/07/22 06:25:09;;;;;;;;;19.00;19.00;;;;;-146.44;100.00;58906.56;5057880;28;46136;-67
2022/07/22 06:27:34;;;;;;;;;21.00;18.00;;;;;-146.44;100.00;58906.56;5057935;28;45378;-67
2022/07/22 06:30:00;;;;;;;;;18.33;17.33;;;;;-146.44;100.00;58906.56;5058116;28;45441;-67
2022/07/22 06:32:25;;;;;;;;;23.67;20.33;;;;;-146.44;100.00;58906.56;5061538;28;45572;-67
2022/07/22 06:34:51;;;;;;;;;23.67;20.67;;;;;-146.44;100.00;58906.56;5075663;28;50333;-67
2022/07/22 06:37:16;;;;;;;;;23.00;21.33;;;;;-146.44;100.00;58906.56;5073164;28;45450;-67
2022/07/22 06:39:42;;;;;;;;;25.33;23.00;;;;;-146.44;100.00;58906.56;5057594;28;45436;-67
2022/07/22 06:42:07;;;;;;;;;21.67;20.33;;;;;-146.44;100.00;58906.56;5057704;28;45598;-67
2022/07/22 06:44:33;;;;;;;;;22.00;22.00;;;;;-146.44;100.00;58906.56;5056240;28;45539;-67
2022/07/22 06:46:58;;;;;;;;;20.00;19.00;;;;;-146.44;100.00;58906.56;5057833;28;45451;-67
2022/07/22 06:49:23;;;;;;;;;20.00;17.00;;;;;-146.44;100.00;58906.56;5061764;28;45936;-66
2022/07/22 06:51:49;;;;;;;;;18.33;18.33;;;;;-146.44;100.00;58906.56;5077947;28;45398;-68
2022/07/22 06:54:14;;;;;;;;;23.67;23.67;;;;;-146.44;100.00;58906.56;5077702;28;46289;-67
2022/07/22 06:56:39;;;;;;;;;20.00;20.00;;;;;-146.44;100.00;58906.56;5077518;28;47237;-67
2022/07/22 06:59:05;;;;;;;;;25.33;21.00;;;;;-146.44;100.00;58906.56;5077690;28;45573;-67
2022/07/22 07:01:30;;;;;;;;;23.33;21.33;;;;;-146.44;100.00;58906.56;5077756;28;45413;-67
2022/07/22 07:03:56;;;;;;;;;19.67;19.67;;;;;-146.44;100.00;58906.56;5077469;28;45448;-67
2022/07/22 07:06:21;;;;;;;;;23.33;21.33;;;;;-146.44;100.00;58906.56;5077727;27;45435;-67
2022/07/22 07:08:46;;;;;;;;;23.33;22.33;;;;;-146.44;100.00;58906.56;5077782;28;45436;-67
2022/07/22 07:11:12;;;;;;;;;21.00;20.33;;;;;-146.44;100.00;58906.56;5077362;28;45328;-66
2022/07/22 07:13:37;;;;;;;;;20.67;20.00;;;;;-146.44;100.00;58906.56;5077218;28;45399;-66
2022/07/22 07:16:03;;;;;;;;;22.00;21.00;;;;;-146.44;100.00;58906.56;5077234;27;45331;-67
2022/07/22 07:18:28;;;;;;;;;20.33;18.33;;;;;-146.44;100.00;58906.56;5077592;28;45357;-67
2022/07/22 07:20:54;;;;;;;;;24.00;21.67;;;;;-146.44;100.00;58906.56;5077508;28;45382;-67
2022/07/22 07:23:19;;;;;;;;;22.67;22.00;;;;;-146.44;100.00;58906.56;5077280;28;45434;-67
2022/07/22 07:25:44;;;;;;;;;21.67;21.67;;;;;-146.44;100.00;58906.56;5077172;28;45370;-67
2022/07/22 07:28:10;;;;;;;;;18.00;18.00;;;;;-146.44;100.00;58906.56;5077374;28;45351;-67
2022/07/22 07:30:35;;;;;;;;;21.67;21.67;;;;;-146.44;100.00;58906.56;5077090;28;45402;-67
2022/07/22 07:33:01;;;;;;;;;19.00;19.00;;;;;-146.44;100.00;58906.56;5076993;28;45913;-67
2022/07/22 07:35:27;;;;;;;;;18.33;18.00;;;;;-146.44;100.00;58906.56;5077043;28;45502;-67
2022/07/22 07:37:53;;;;;;;;;21.00;20.00;;;;;-146.44;100.00;58906.56;5077078;28;45554;-67
2022/07/22 07:40:18;;;;;;;;;26.00;23.33;;;;;-146.44;100.00;58906.56;5077052;28;45561;-67
2022/07/22 07:42:44;;;;;;;;;21.00;20.67;;;;;-146.44;100.00;58906.56;5076807;28;46849;-67
2022/07/22 07:45:10;;;;;;;;;21.00;19.00;;;;;-146.44;100.00;58906.56;5076973;28;45457;-67
2022/07/22 07:47:35;;;;;;;;;20.67;20.33;;;;;-146.44;100.00;58906.56;5077003;28;45457;-67
2022/07/22 07:50:02;;;;;;;;;29.33;22.33;;;;;-146.44;100.00;58906.56;5092571;27;45618;-67
2022/07/22 07:52:28;;;;;;;;;22.67;22.67;;;;;-146.44;100.00;58906.56;5076769;28;45997;-67
2022/07/22 07:54:55;;;;;;;;;21.33;20.33;;;;;-146.44;100.00;58906.56;5076873;28;45411;-67
2022/07/22 07:57:21;;;;;;;;;20.67;20.00;;;;;-146.44;100.00;58906.56;5076770;28;45299;-67
2022/07/22 07:59:46;;;;;;;;;34.00;29.33;;;;;-146.44;100.00;58906.56;5076649;27;45575;-67
2022/07/22 08:02:12;;;;;;;;;21.33;21.33;;;;;-146.44;100.00;58906.56;5076763;28;46145;-67
2022/07/22 08:04:37;;;;;;;;;24.33;24.33;;;;;-146.44;100.00;58906.56;5076382;28;45534;-67
2022/07/22 08:07:06;;;;;;;;;23.67;23.00;;;;;-146.44;100.00;58906.56;5076672;28;45522;-67
2022/07/22 08:09:32;;;;;;;;;21.33;20.00;;;;;-146.44;100.00;58906.56;5076822;28;45217;-67
2022/07/22 08:11:57;;;;;;;;;21.67;20.67;;;;;-146.44;100.00;58906.56;5076246;28;45413;-67
2022/07/22 08:14:23;;;;;;;;;24.33;21.33;;;;;-146.44;100.00;58906.56;5075882;28;46019;-68
2022/07/22 08:16:49;;;;;;;;;21.67;20.67;;;;;-146.44;100.00;58906.56;5076407;28;45528;-67
2022/07/22 08:19:14;;;;;;;;;23.33;21.33;;;;;-146.44;100.00;58906.56;5076047;28;45442;-67
2022/07/22 08:21:41;;;;;;;;;20.33;19.67;;;;;-146.44;100.00;58906.56;5076203;28;46025;-67
2022/07/22 08:24:08;;;;;;;;;23.67;21.00;;;;;-146.44;100.00;58906.56;5076404;28;45773;-67
2022/07/22 08:26:34;;;;;;;;;26.67;26.67;;;;;-146.44;100.00;58906.56;5075159;28;45507;-67
2022/07/22 08:28:59;;;;;;;;;23.00;23.00;;;;;-146.44;100.00;58906.56;5076318;28;45374;-67
2022/07/22 08:31:27;;;;;;;;;21.33;21.33;;;;;-146.44;100.00;58906.56;5070280;28;45429;-67
2022/07/22 08:33:52;;;;;;;;;25.00;25.00;;;;;-146.44;100.00;58906.56;5055804;28;45451;-67
2022/07/22 08:36:18;;;;;;;;;24.33;21.00;;;;;-146.44;100.00;58906.56;5055897;28;45414;-67
2022/07/22 08:38:43;;;;;;;;;19.67;19.67;;;;;-146.44;100.00;58906.56;5055188;28;45370;-67
2022/07/22 08:41:08;;;;;;;;;22.00;22.00;;;;;-146.44;100.00;58906.56;5071014;28;45578;-67
2022/07/22 08:43:36;;;;;;;;;26.67;24.00;;;;;-146.44;100.00;58906.56;5055836;28;45369;-66
2022/07/22 08:46:02;;;;;;;;;22.00;22.00;;;;;-146.44;100.00;58906.56;5055890;28;45314;-67
2022/07/22 08:48:27;;;;;;;;;25.00;23.33;;;;;-146.44;100.00;58906.56;5055818;28;45590;-67
2022/07/22 08:50:52;;;;;;;;;22.67;22.00;;;;;-146.44;100.00;58906.56;5055485;28;46040;-67
2022/07/22 08:53:18;;;;;;;;;25.00;24.67;;;;;-146.44;100.00;58906.56;5055534;28;45422;-67
2022/07/22 08:55:48;;;;;;;;;22.67;21.67;;;;;-146.44;100.00;58906.56;5055707;28;45449;-67
2022/07/22 08:58:14;;;;;;;;;25.00;24.33;;;;;-146.44;100.00;58906.56;5055692;28;45432;-66
2022/07/22 09:00:39;;;;;;;;;24.33;24.33;;;;;-146.44;100.00;58906.56;5055509;28;45399;-66
2022/07/22 09:03:27;;;;;;;;;23.00;22.33;;;;;-146.44;100.00;58906.56;5055466;28;45430;-67
2022/07/22 09:05:53;;;;;;;;;23.33;21.33;;;;;-146.44;100.00;58906.56;5071103;28;45532;-67
2022/07/22 09:08:19;;;;;;;;;24.67;22.67;;;;;-146.44;100.00;58906.56;5055530;28;45521;-66
2022/07/22 09:10:45;;;;;;;;;20.00;20.00;;;;;-146.44;100.00;58906.56;5055400;28;45492;-67
2022/07/22 09:13:11;;;;;;;;;20.00;20.00;;;;;-146.44;100.00;58906.56;5055310;28;45501;-67
2022/07/22 09:15:44;;;;;;;;;25.67;25.67;;;;;-146.44;100.00;58906.56;5055119;28;45424;-67
2022/07/22 09:18:10;;;;;;;;;25.67;23.33;;;;;-146.44;100.00;58906.56;5055303;28;45366;-67
2022/07/22 09:20:37;;;;;;;;;43.33;36.33;;;;;-146.44;100.00;58906.56;5055147;28;45448;-67
2022/07/22 09:23:10;;;;;;;;;23.33;23.33;;;;;-146.44;100.00;58906.56;5055062;28;45461;-67
2022/07/22 09:25:37;;;;;;;;;30.00;28.33;;;;;-146.44;100.00;58906.56;5055224;28;45469;-66
2022/07/22 09:28:06;;;;;;;;;23.67;21.00;;;;;-146.44;100.00;58906.56;5055062;28;45319;-66
2022/07/22 09:30:36;;;;;;;;;22.00;22.00;;;;;-146.44;100.00;58906.56;5055058;28;45509;-66
2022/07/22 09:33:03;;;;;;;;;24.67;22.33;;;;;-146.44;100.00;58906.56;5055048;28;45431;-66
2022/07/22 09:35:29;;;;;;;;;27.67;25.67;;;;;-146.44;100.00;58906.56;5055221;28;45430;-66
2022/07/22 09:37:59;;;;;;;;;24.00;22.33;;;;;-146.44;100.00;58906.56;5055099;28;45431;-66
2022/07/22 09:40:30;;;;;;;;;25.33;23.33;;;;;-146.44;100.00;58906.56;5054707;28;45468;-66
2022/07/22 09:43:01;;;;;;;;;24.33;22.33;;;;;-146.44;100.00;58906.56;5053276;28;45368;-67
2022/07/22 09:45:29;;;;;;;;;27.00;25.33;;;;;-146.44;100.00;58906.56;5055025;28;45398;-66
2022/07/22 09:47:56;;;;;;;;;22.00;21.00;;;;;-146.44;100.00;58906.56;5054755;28;45584;-66
2022/07/22 09:50:27;;;;;;;;;23.00;22.00;;;;;-146.44;100.00;58906.56;5054956;28;45560;-66
2022/07/22 09:52:55;;;;;;;;;22.00;22.00;;;;;-146.44;100.00;58906.56;5058495;28;45347;-66
2022/07/22 09:55:22;;;;;;;;;22.00;22.00;;;;;-146.44;100.00;58906.56;5058599;28;45374;-66
2022/07/22 09:57:49;;;;;;;;;24.33;24.33;;;;;-146.44;100.00;58906.56;5058273;28;45544;-66
2022/07/22 10:00:20;;;;;;;;;28.33;25.33;;;;;-146.44;100.00;58906.56;5059258;28;46046;-66
2022/07/22 10:02:49;;;;;;;;;21.25;21.25;;;;;-146.44;100.00;58906.56;5069312;28;45422;-66
2022/07/22 10:05:18;;;;;;;;;25.67;24.33;;;;;-146.44;100.00;58906.56;5058275;28;45378;-66
2022/07/22 10:07:45;;;;;;;;;22.67;20.67;;;;;-146.44;100.00;58906.56;5074595;28;45542;-66
2022/07/22 10:10:14;;;;;;;;;22.33;22.00;;;;;-146.44;100.00;58906.56;5078504;28;45444;-66
2022/07/22 10:12:40;;;;;;;;;24.00;24.00;;;;;-146.44;100.00;58906.56;5078383;28;45370;-66
2022/07/22 10:15:07;;;;;;;;;24.67;23.67;;;;;-146.44;100.00;58906.56;5077943;28;45561;-66
2022/07/22 10:17:37;;;;;;;;;24.67;23.67;;;;;-146.44;100.00;58906.56;5078339;28;45577;-66
2022/07/22 10:20:05;;;;;;;;;23.33;23.33;;;;;-146.44;100.00;58906.56;5059974;28;45930;-66
2022/07/22 10:22:40;;;;;;;;;23.67;21.00;;;;;-146.44;100.00;58906.56;5057709;28;45450;-66
2022/07/22 10:25:07;;;;;;;;;22.67;22.67;;;;;-146.44;100.00;58906.56;5073515;28;45509;-65
2022/07/22 10:28:03;;;;;;;;;21.00;20.67;;;;;-146.44;100.00;58906.56;5057851;28;45432;-66
2022/07/22 10:30:33;;;;;;;;;21.67;21.67;;;;;-146.44;100.00;58906.56;5057716;28;45893;-66
2022/07/22 10:33:02;;;;;;;;;22.67;22.33;;;;;-146.44;100.00;58906.56;5057982;28;45459;-66
2022/07/22 10:35:28;;;;;;;;;27.00;26.67;;;;;-146.44;100.00;58906.56;5057924;28;45446;-66
2022/07/22 10:37:56;;;;;;;;;24.33;23.33;;;;;-146.44;100.00;58906.56;5057510;28;45545;-66
2022/07/22 10:40:24;;;;;;;;;54.67;45.33;;;;;-146.44;100.00;58906.56;5057497;28;45409;-66
2022/07/22 10:43:07;;;;;;;;;26.33;25.33;;;;;-146.44;100.00;58906.56;5057507;28;45454;-66
2022/07/22 10:45:36;;;;;;;;;31.33;27.33;;;;;-146.44;100.00;58906.56;5057569;28;45437;-66
2022/07/22 10:48:05;;;;;;;;;26.00;26.00;;;;;-146.44;100.00;58906.56;5057594;28;45453;-66
2022/07/22 10:50:40;;;;;;;;;25.67;25.67;;;;;-146.44;100.00;58906.56;5057345;28;45361;-66